Time;durP1;ratioP1;P1;durP2;ratioP2;P2;SDS_P1;SDS_P2;PMS_P1;PMS_P2;Temp;Humidity;BMP_temperature;BMP_pressure;BME280_temperature;BME280_humidity;BME280_pressure;Samples;Min_cycle;Max_cycle;Signal;HPM_P1;HPM_P2
2022/05/05 00:01:58;;;;;;;7.07;4.70;;;;;;;;;;4983590;28;20042;-80
2022/05/05 00:04:23;;;;;;;6.45;4.47;;;;;;;;;;4969036;28;20394;-80
2022/05/05 00:06:49;;;;;;;6.63;4.40;;;;;;;;;;4974077;28;20034;-81
2022/05/05 00:09:14;;;;;;;7.75;5.05;;;;;;;;;;4973305;28;20086;-80
2022/05/05 00:14:24;;;;;;;9.18;4.93;;;;;;;;;;4994952;28;20041;-79
2022/05/05 00:16:57;;;;;;;5.60;4.40;;;;;;;;;;4965014;28;20026;-81
2022/05/05 00:19:22;;;;;;;7.05;4.80;;;;;;;;;;4984319;28;20553;-80
2022/05/05 00:21:48;;;;;;;7.75;5.00;;;;;;;;;;4981444;28;20062;-79
2022/05/05 00:24:13;;;;;;;7.55;4.28;;;;;;;;;;4978630;28;20393;-80
2022/05/05 00:26:39;;;;;;;6.88;4.75;;;;;;;;;;4966196;28;20049;-80
2022/05/05 00:29:05;;;;;;;8.23;5.45;;;;;;;;;;4970828;28;20034;-80
2022/05/05 00:31:33;;;;;;;8.50;4.65;;;;;;;;;;4968455;28;20430;-79
2022/05/05 00:33:58;;;;;;;6.78;4.40;;;;;;;;;;4980941;28;20085;-80
2022/05/05 00:36:24;;;;;;;7.22;4.57;;;;;;;;;;4969696;28;20042;-80
2022/05/05 00:38:49;;;;;;;8.75;5.78;;;;;;;;;;4987999;28;20112;-79
2022/05/05 00:41:14;;;;;;;7.35;4.88;;;;;;;;;;4979964;28;20056;-79
2022/05/05 00:43:40;;;;;;;9.68;4.90;;;;;;;;;;4988066;28;20459;-79
2022/05/05 00:46:05;;;;;;;7.90;4.75;;;;;;;;;;4965610;28;20545;-79
2022/05/05 00:48:31;;;;;;;7.10;5.25;;;;;;;;;;4968927;28;20044;-80
2022/05/05 00:50:57;;;;;;;7.07;4.47;;;;;;;;;;4973113;28;20033;-81
2022/05/05 00:53:23;;;;;;;8.60;5.70;;;;;;;;;;4985450;28;20042;-80
2022/05/05 00:55:51;;;;;;;6.75;5.32;;;;;;;;;;4963850;28;20045;-80
2022/05/05 00:58:17;;;;;;;7.40;5.25;;;;;;;;;;4984419;28;20044;-80
2022/05/05 01:03:23;;;;;;;8.82;6.57;;;;;;;;;;5878147;23;20084;-80
2022/05/05 01:05:48;;;;;;;8.13;6.50;;;;;;;;;;4972446;28;20530;-80
2022/05/05 01:08:14;;;;;;;9.63;6.50;;;;;;;;;;4974721;28;20044;-80
2022/05/05 01:10:39;;;;;;;8.48;6.95;;;;;;;;;;4985513;28;20042;-80
2022/05/05 01:13:05;;;;;;;9.80;6.70;;;;;;;;;;4968928;28;20553;-80
2022/05/05 01:15:30;;;;;;;9.23;6.72;;;;;;;;;;4972398;28;20121;-80
2022/05/05 01:17:56;;;;;;;8.30;6.88;;;;;;;;;;4989676;28;20052;-80
2022/05/05 01:20:22;;;;;;;9.35;7.00;;;;;;;;;;4973067;28;20053;-81
2022/05/05 01:22:47;;;;;;;7.82;6.60;;;;;;;;;;4968570;28;20045;-80
2022/05/05 01:28:12;;;;;;;9.30;6.80;;;;;;;;;;4991294;28;20115;-80
2022/05/05 01:30:39;;;;;;;11.00;6.47;;;;;;;;;;4981326;28;20038;-80
2022/05/05 01:33:15;;;;;;;9.30;6.30;;;;;;;;;;5005568;28;20068;-80
2022/05/05 01:35:41;;;;;;;8.70;6.25;;;;;;;;;;4961014;28;20037;-80
2022/05/05 01:38:08;;;;;;;8.07;5.68;;;;;;;;;;4989033;28;20125;-81
2022/05/05 01:40:35;;;;;;;9.63;5.72;;;;;;;;;;4987578;28;20508;-81
2022/05/05 01:43:01;;;;;;;8.35;5.60;;;;;;;;;;4972685;28;20030;-82
2022/05/05 01:45:26;;;;;;;8.68;5.40;;;;;;;;;;4982529;28;20042;-81
2022/05/05 01:47:51;;;;;;;9.68;5.35;;;;;;;;;;4972724;28;20393;-81
2022/05/05 01:50:17;;;;;;;9.43;4.70;;;;;;;;;;4986964;28;20041;-81
2022/05/05 01:52:42;;;;;;;7.47;4.72;;;;;;;;;;4972153;28;20115;-81
2022/05/05 01:55:08;;;;;;;9.63;4.90;;;;;;;;;;4971721;28;20112;-81
2022/05/05 01:57:33;;;;;;;8.75;4.90;;;;;;;;;;4962322;28;20757;-80
2022/05/05 02:00:03;;;;;;;9.93;4.80;;;;;;;;;;4975782;28;20157;-81
2022/05/05 02:02:28;;;;;;;7.57;4.80;;;;;;;;;;4962520;28;20140;-80
2022/05/05 02:04:53;;;;;;;11.27;5.43;;;;;;;;;;4988593;28;20173;-80
2022/05/05 02:07:24;;;;;;;10.65;4.90;;;;;;;;;;4970275;28;20452;-81
2022/05/05 02:09:49;;;;;;;9.02;4.75;;;;;;;;;;4964090;28;20400;-80
2022/05/05 02:12:15;;;;;;;10.40;5.25;;;;;;;;;;4971095;28;20045;-80
2022/05/05 02:14:40;;;;;;;8.23;5.05;;;;;;;;;;4998400;28;20034;-81
2022/05/05 02:17:06;;;;;;;12.70;5.55;;;;;;;;;;4971491;28;20036;-81
2022/05/05 02:19:31;;;;;;;9.80;5.20;;;;;;;;;;4972605;28;20038;-81
2022/05/05 02:21:57;;;;;;;7.55;5.32;;;;;;;;;;4976053;28;20492;-80
2022/05/05 02:24:22;;;;;;;14.13;5.55;;;;;;;;;;4971982;28;20037;-80
2022/05/05 02:26:48;;;;;;;10.05;5.72;;;;;;;;;;4971769;28;20038;-80
2022/05/05 02:29:13;;;;;;;11.48;5.88;;;;;;;;;;4977414;28;20543;-81
2022/05/05 02:31:39;;;;;;;11.93;5.70;;;;;;;;;;4972024;28;20093;-80
2022/05/05 02:34:08;;;;;;;10.38;6.00;;;;;;;;;;4987457;28;20049;-81
2022/05/05 02:39:21;;;;;;;11.48;6.00;;;;;;;;;;5005513;28;20173;-80
2022/05/05 02:41:46;;;;;;;10.88;5.90;;;;;;;;;;4986808;28;20120;-80
2022/05/05 02:44:11;;;;;;;9.90;5.80;;;;;;;;;;4971977;28;20030;-80
2022/05/05 02:46:37;;;;;;;10.13;5.80;;;;;;;;;;4986634;28;20370;-79
2022/05/05 02:49:02;;;;;;;14.38;6.88;;;;;;;;;;4993211;28;20104;-82
2022/05/05 02:51:27;;;;;;;11.18;5.82;;;;;;;;;;4994518;28;20109;-79
2022/05/05 02:56:37;;;;;;;11.38;6.18;;;;;;;;;;4989083;28;20041;-80
2022/05/05 02:59:02;;;;;;;10.40;5.95;;;;;;;;;;4986376;28;20045;-80
2022/05/05 03:01:27;;;;;;;11.40;6.35;;;;;;;;;;4972381;28;20061;-79
2022/05/05 03:03:52;;;;;;;9.02;6.50;;;;;;;;;;4975701;28;20520;-80
2022/05/05 03:06:18;;;;;;;10.73;6.57;;;;;;;;;;4970522;28;20054;-80
2022/05/05 03:08:44;;;;;;;12.25;6.90;;;;;;;;;;4986087;28;20033;-81
2022/05/05 03:11:10;;;;;;;14.10;7.10;;;;;;;;;;4978590;28;20042;-79
2022/05/05 03:13:36;;;;;;;13.10;7.20;;;;;;;;;;4986424;28;20037;-80
2022/05/05 03:16:02;;;;;;;10.55;7.60;;;;;;;;;;4970731;28;20038;-80
2022/05/05 03:18:28;;;;;;;10.43;7.57;;;;;;;;;;4970693;28;20034;-80
2022/05/05 03:20:53;;;;;;;11.27;7.60;;;;;;;;;;4970613;28;20045;-80
2022/05/05 03:23:18;;;;;;;14.52;7.57;;;;;;;;;;4986741;28;20116;-81
2022/05/05 03:25:44;;;;;;;13.32;8.07;;;;;;;;;;4970754;28;20547;-80
2022/05/05 03:28:09;;;;;;;10.90;7.78;;;;;;;;;;4986538;28;20038;-80
2022/05/05 03:30:34;;;;;;;11.20;8.18;;;;;;;;;;4985470;28;20041;-80
2022/05/05 03:32:59;;;;;;;11.40;7.63;;;;;;;;;;4986789;28;20077;-82
2022/05/05 03:35:25;;;;;;;11.57;7.72;;;;;;;;;;4986865;28;20069;-82
2022/05/05 03:37:50;;;;;;;10.90;7.68;;;;;;;;;;4986998;28;20087;-82
2022/05/05 03:40:15;;;;;;;12.77;7.50;;;;;;;;;;4970011;28;20046;-82
2022/05/05 03:42:43;;;;;;;11.98;8.05;;;;;;;;;;4973853;28;20519;-82
2022/05/05 03:45:08;;;;;;;;;;;;;;;;;;4986569;28;20471;-82
2022/05/05 03:47:34;;;;;;;14.73;8.95;;;;;;;;;;4977821;28;19917;-81
2022/05/05 03:49:59;;;;;;;12.75;8.55;;;;;;;;;;4970622;28;20034;-83
2022/05/05 03:52:24;;;;;;;13.90;8.80;;;;;;;;;;4971185;28;20038;-83
2022/05/05 03:54:52;;;;;;;13.98;9.23;;;;;;;;;;4970590;28;20073;-82
2022/05/05 03:57:18;;;;;;;16.10;8.65;;;;;;;;;;4982681;28;20418;-83
2022/05/05 03:59:43;;;;;;;12.38;8.85;;;;;;;;;;4974595;28;20041;-82
2022/05/05 04:02:08;;;;;;;13.90;8.63;;;;;;;;;;4970235;28;20038;-83
2022/05/05 04:04:34;;;;;;;12.50;9.43;;;;;;;;;;4973980;28;20037;-83
2022/05/05 04:06:59;;;;;;;12.23;9.55;;;;;;;;;;4986242;28;20050;-82
2022/05/05 04:09:24;;;;;;;13.13;9.10;;;;;;;;;;4976405;28;20046;-82
2022/05/05 04:11:50;;;;;;;14.52;9.43;;;;;;;;;;4970894;28;20044;-82
2022/05/05 04:14:15;;;;;;;11.27;9.20;;;;;;;;;;4986252;28;20038;-82
2022/05/05 04:16:43;;;;;;;14.07;9.77;;;;;;;;;;4969740;28;20029;-83
2022/05/05 04:19:11;;;;;;;14.90;9.50;;;;;;;;;;4984249;28;20085;-83
2022/05/05 04:21:36;;;;;;;14.18;9.75;;;;;;;;;;4968833;28;20033;-85
2022/05/05 04:24:01;;;;;;;14.60;10.27;;;;;;;;;;4984487;28;20056;-83
2022/05/05 04:26:27;;;;;;;14.63;10.25;;;;;;;;;;4967041;28;20041;-83
2022/05/05 04:28:53;;;;;;;14.25;10.10;;;;;;;;;;4973878;28;20040;-83
2022/05/05 04:31:19;;;;;;;16.17;10.00;;;;;;;;;;4976629;28;20042;-83
2022/05/05 04:33:45;;;;;;;14.82;9.10;;;;;;;;;;4981050;28;20033;-83
2022/05/05 04:36:11;;;;;;;13.43;9.55;;;;;;;;;;4981733;28;20392;-86
2022/05/05 04:38:37;;;;;;;14.73;9.90;;;;;;;;;;4973384;28;20547;-83
2022/05/05 04:41:03;;;;;;;15.07;10.05;;;;;;;;;;4988036;28;20045;-84
2022/05/05 04:43:31;;;;;;;11.90;10.10;;;;;;;;;;4983689;28;20125;-83
2022/05/05 04:45:56;;;;;;;14.75;9.68;;;;;;;;;;4972925;28;20034;-83
2022/05/05 04:48:21;;;;;;;15.85;9.15;;;;;;;;;;4989649;28;20072;-81
2022/05/05 04:50:47;;;;;;;13.88;9.48;;;;;;;;;;4988354;28;20369;-81
2022/05/05 04:53:12;;;;;;;12.98;9.13;;;;;;;;;;4973266;28;20042;-80
2022/05/05 04:55:40;;;;;;;12.50;9.40;;;;;;;;;;4988231;28;20065;-81
2022/05/05 04:58:05;;;;;;;13.80;9.57;;;;;;;;;;4972811;28;20046;-80
2022/05/05 05:00:31;;;;;;;14.77;9.30;;;;;;;;;;4988712;28;20046;-80
2022/05/05 05:02:57;;;;;;;12.82;9.50;;;;;;;;;;4977204;28;20072;-79
2022/05/05 05:05:22;;;;;;;13.65;9.20;;;;;;;;;;4972114;28;20041;-80
2022/05/05 05:07:48;;;;;;;14.25;9.00;;;;;;;;;;4967890;28;20069;-80
2022/05/05 05:10:13;;;;;;;12.60;9.18;;;;;;;;;;4987995;28;20447;-80
2022/05/05 05:12:40;;;;;;;12.77;8.60;;;;;;;;;;4974534;28;20120;-81
2022/05/05 05:15:06;;;;;;;14.07;9.85;;;;;;;;;;4984239;28;20461;-81
2022/05/05 05:17:31;;;;;;;13.10;9.00;;;;;;;;;;4983484;28;20030;-81
2022/05/05 05:19:57;;;;;;;13.80;9.35;;;;;;;;;;4988718;28;20049;-83
2022/05/05 05:22:22;;;;;;;12.60;8.57;;;;;;;;;;4967964;28;20491;-82
2022/05/05 05:24:47;;;;;;;11.95;8.75;;;;;;;;;;4987942;28;20049;-81
2022/05/05 05:27:13;;;;;;;13.80;9.00;;;;;;;;;;5006363;28;20034;-82
2022/05/05 05:29:39;;;;;;;15.98;10.10;;;;;;;;;;4963790;28;20045;-80
2022/05/05 05:32:05;;;;;;;13.60;9.20;;;;;;;;;;4970713;28;20042;-81
2022/05/05 05:34:30;;;;;;;17.05;9.48;;;;;;;;;;4979660;28;20076;-80
2022/05/05 05:36:55;;;;;;;13.75;9.48;;;;;;;;;;4987255;28;20029;-81
2022/05/05 05:39:21;;;;;;;13.77;8.77;;;;;;;;;;4969636;28;20062;-81
2022/05/05 05:41:46;;;;;;;14.88;9.38;;;;;;;;;;4987563;28;20064;-82
2022/05/05 05:44:12;;;;;;;13.75;8.85;;;;;;;;;;4987877;28;20516;-81
2022/05/05 05:46:37;;;;;;;12.88;8.45;;;;;;;;;;4976199;28;20037;-81
2022/05/05 05:49:04;;;;;;;14.80;8.63;;;;;;;;;;5005068;28;20124;-80
2022/05/05 05:51:29;;;;;;;13.65;9.00;;;;;;;;;;4976020;28;20026;-80
2022/05/05 05:53:54;;;;;;;11.23;7.90;;;;;;;;;;4972560;28;20037;-80
2022/05/05 05:56:20;;;;;;;12.45;7.95;;;;;;;;;;4973028;28;20061;-85
2022/05/05 05:58:45;;;;;;;12.88;8.07;;;;;;;;;;4976927;28;20057;-82
2022/05/05 06:01:10;;;;;;;12.20;7.93;;;;;;;;;;4972178;28;20045;-83
2022/05/05 06:03:54;;;;;;;15.15;8.60;;;;;;;;;;4974980;28;20042;-82
2022/05/05 06:06:20;;;;;;;12.07;8.00;;;;;;;;;;4978653;28;20071;-81
2022/05/05 06:08:46;;;;;;;15.82;8.52;;;;;;;;;;4971356;28;20053;-80
2022/05/05 06:11:12;;;;;;;12.82;8.52;;;;;;;;;;4986185;28;20393;-80
2022/05/05 06:13:38;;;;;;;14.40;8.52;;;;;;;;;;4975651;28;20040;-80
2022/05/05 06:16:04;;;;;;;16.58;8.98;;;;;;;;;;4962083;28;20096;-80
2022/05/05 06:18:30;;;;;;;14.60;8.23;;;;;;;;;;4966627;28;20092;-80
2022/05/05 06:20:56;;;;;;;13.13;7.93;;;;;;;;;;4970531;28;20041;-80
2022/05/05 06:23:21;;;;;;;14.35;8.43;;;;;;;;;;4988366;28;20038;-81
2022/05/05 06:25:48;;;;;;;12.75;8.38;;;;;;;;;;4985530;28;20042;-80
2022/05/05 06:28:13;;;;;;;14.13;8.55;;;;;;;;;;4970330;28;20493;-80
2022/05/05 06:30:38;;;;;;;11.38;8.25;;;;;;;;;;4971008;28;20034;-82
2022/05/05 06:33:04;;;;;;;13.65;8.15;;;;;;;;;;4970766;28;20077;-80
2022/05/05 06:35:29;;;;;;;11.38;7.25;;;;;;;;;;4986760;28;20130;-81
2022/05/05 06:37:54;;;;;;;10.23;7.28;;;;;;;;;;4976819;28;20045;-80
2022/05/05 06:40:20;;;;;;;12.98;7.72;;;;;;;;;;4970842;28;20038;-81
2022/05/05 06:42:48;;;;;;;12.18;7.28;;;;;;;;;;4970541;28;20045;-80
2022/05/05 06:45:13;;;;;;;12.15;7.95;;;;;;;;;;4981739;28;20485;-81
2022/05/05 06:47:39;;;;;;;13.93;7.95;;;;;;;;;;4969217;28;20041;-81
2022/05/05 06:50:05;;;;;;;11.38;7.00;;;;;;;;;;4984995;28;20536;-81
2022/05/05 06:52:30;;;;;;;14.70;7.60;;;;;;;;;;4970276;28;20030;-82
2022/05/05 06:54:55;;;;;;;11.10;7.38;;;;;;;;;;4987392;28;20243;-81
2022/05/05 06:57:21;;;;;;;12.20;7.15;;;;;;;;;;4986683;28;20045;-81
2022/05/05 06:59:46;;;;;;;12.80;6.93;;;;;;;;;;4974569;28;20038;-81
2022/05/05 07:02:12;;;;;;;12.68;7.60;;;;;;;;;;4981421;28;20520;-81
2022/05/05 07:07:29;;;;;;;12.85;7.32;;;;;;;;;;4947378;28;20060;-81
2022/05/05 07:12:38;;;;;;;14.18;8.23;;;;;;;;;;4981078;28;20041;-80
2022/05/05 07:15:04;;;;;;;12.27;6.97;;;;;;;;;;4983451;28;20046;-81
2022/05/05 07:17:29;;;;;;;10.45;6.88;;;;;;;;;;4983097;28;20037;-81
2022/05/05 07:19:58;;;;;;;13.35;7.40;;;;;;;;;;4982414;28;20385;-80
2022/05/05 07:22:23;;;;;;;11.20;7.15;;;;;;;;;;4982445;28;20038;-80
2022/05/05 07:24:48;;;;;;;9.60;7.68;;;;;;;;;;4981912;28;20560;-81
2022/05/05 07:27:14;;;;;;;11.18;7.18;;;;;;;;;;4981368;28;20602;-80
2022/05/05 07:29:40;;;;;;;13.10;6.90;;;;;;;;;;4982546;28;20042;-80
2022/05/05 07:32:06;;;;;;;11.93;7.20;;;;;;;;;;4982729;28;20050;-80
2022/05/05 07:34:34;;;;;;;12.63;6.20;;;;;;;;;;4966877;28;20100;-80
2022/05/05 07:36:59;;;;;;;9.98;6.88;;;;;;;;;;4966750;28;20080;-80
2022/05/05 07:39:25;;;;;;;14.13;6.63;;;;;;;;;;4968443;28;20485;-81
2022/05/05 07:41:50;;;;;;;12.35;6.30;;;;;;;;;;4960418;28;20038;-81
2022/05/05 07:44:15;;;;;;;9.70;6.50;;;;;;;;;;4978411;28;20192;-81
2022/05/05 07:46:41;;;;;;;11.02;6.22;;;;;;;;;;4967629;28;20383;-80
2022/05/05 07:49:06;;;;;;;11.02;6.10;;;;;;;;;;4966390;28;20038;-79
2022/05/05 07:51:32;;;;;;;9.20;5.63;;;;;;;;;;4966117;28;20034;-79
2022/05/05 07:56:43;;;;;;;9.57;5.40;;;;;;;;;;4986776;28;20065;-81
2022/05/05 07:59:08;;;;;;;17.15;5.40;;;;;;;;;;4970819;28;20044;-80
2022/05/05 08:01:33;;;;;;;12.07;6.25;;;;;;;;;;4986006;28;20533;-80
2022/05/05 08:03:59;;;;;;;9.88;5.60;;;;;;;;;;5002584;28;20050;-80
2022/05/05 08:06:24;;;;;;;10.30;5.82;;;;;;;;;;4970594;28;20065;-80
2022/05/05 08:08:49;;;;;;;10.38;5.68;;;;;;;;;;4970576;28;20494;-80
2022/05/05 08:11:15;;;;;;;8.07;5.30;;;;;;;;;;4971324;28;20045;-81
2022/05/05 08:13:40;;;;;;;10.00;6.05;;;;;;;;;;4984828;28;20038;-81
2022/05/05 08:16:06;;;;;;;8.93;5.68;;;;;;;;;;4969729;28;20058;-81
2022/05/05 08:18:32;;;;;;;9.13;5.57;;;;;;;;;;4964559;28;20034;-81
2022/05/05 08:20:57;;;;;;;9.90;5.93;;;;;;;;;;4985697;28;20042;-81
2022/05/05 08:23:23;;;;;;;8.10;5.03;;;;;;;;;;4972347;28;20437;-81
2022/05/05 08:28:36;;;;;;;10.38;5.30;;;;;;;;;;4985796;28;20045;-79
2022/05/05 08:31:03;;;;;;;12.93;5.25;;;;;;;;;;4985657;28;20161;-81
2022/05/05 08:33:28;;;;;;;9.33;5.73;;;;;;;;;;4970748;28;20062;-81
2022/05/05 08:35:55;;;;;;;9.75;5.03;;;;;;;;;;4985005;28;20050;-82
2022/05/05 08:38:20;;;;;;;10.82;4.95;;;;;;;;;;4986706;28;20038;-81
2022/05/05 08:40:46;;;;;;;10.77;5.03;;;;;;;;;;4969524;28;20052;-81
2022/05/05 08:43:11;;;;;;;9.02;4.53;;;;;;;;;;4986454;28;20375;-80
2022/05/05 08:45:37;;;;;;;7.95;4.47;;;;;;;;;;4981078;28;20094;-81
2022/05/05 08:48:07;;;;;;;8.70;4.90;;;;;;;;;;4977516;28;20131;-81
2022/05/05 08:50:33;;;;;;;6.95;4.30;;;;;;;;;;4986043;28;20034;-80
2022/05/05 08:53:01;;;;;;;8.65;4.90;;;;;;;;;;4962099;28;20517;-80
2022/05/05 08:55:26;;;;;;;9.13;4.30;;;;;;;;;;4974950;28;20038;-81
2022/05/05 08:57:52;;;;;;;7.95;4.20;;;;;;;;;;4971913;28;20035;-81
2022/05/05 09:00:18;;;;;;;6.82;4.78;;;;;;;;;;4985592;28;20065;-80
2022/05/05 09:02:44;;;;;;;8.55;4.22;;;;;;;;;;4985414;28;20497;-81
2022/05/05 09:05:09;;;;;;;9.68;3.72;;;;;;;;;;4982911;28;20042;-82
2022/05/05 09:07:51;;;;;;;6.53;3.58;;;;;;;;;;4974542;28;20046;-82
2022/05/05 09:10:19;;;;;;;8.38;4.10;;;;;;;;;;4964253;28;20049;-80
2022/05/05 09:13:00;;;;;;;7.18;3.60;;;;;;;;;;4986592;28;20041;-80
2022/05/05 09:15:34;;;;;;;7.07;3.15;;;;;;;;;;5001703;28;20402;-81
2022/05/05 09:18:20;;;;;;;7.00;3.80;;;;;;;;;;5002049;28;20065;-83
2022/05/05 09:20:47;;;;;;;6.93;3.30;;;;;;;;;;4984808;28;20039;-82
2022/05/05 09:23:34;;;;;;;15.20;3.25;;;;;;;;;;4969700;28;20440;-82
2022/05/05 09:26:01;;;;;;;10.18;3.35;;;;;;;;;;4968797;28;20050;-82
2022/05/05 09:28:30;;;;;;;6.05;3.10;;;;;;;;;;4969299;28;20038;-82
2022/05/05 09:31:09;;;;;;;8.18;3.17;;;;;;;;;;4985674;28;20125;-82
2022/05/05 09:33:37;;;;;;;6.80;3.22;;;;;;;;;;4985971;28;20454;-81
2022/05/05 09:36:11;;;;;;;6.85;3.08;;;;;;;;;;4984704;28;20038;-82
2022/05/05 09:39:02;;;;;;;6.60;3.30;;;;;;;;;;4961294;28;20034;-80
2022/05/05 09:41:28;;;;;;;9.68;3.30;;;;;;;;;;4984011;28;20054;-82
2022/05/05 09:43:55;;;;;;;6.18;2.80;;;;;;;;;;4985292;28;20398;-82
2022/05/05 09:46:26;;;;;;;7.00;3.30;;;;;;;;;;4978109;28;20038;-82
2022/05/05 09:49:19;;;;;;;8.73;3.33;;;;;;;;;;4988042;28;20093;-81
2022/05/05 09:57:43;;;;;;;8.15;3.45;;;;;;;;;;4985181;28;20397;-81
2022/05/05 10:05:45;;;;;;;9.13;3.90;;;;;;;;;;4986232;28;20127;-81
2022/05/05 10:08:14;;;;;;;8.15;3.90;;;;;;;;;;4988475;28;20041;-82
2022/05/05 10:10:40;;;;;;;9.60;3.40;;;;;;;;;;5004205;28;20497;-81
2022/05/05 10:13:07;;;;;;;7.78;3.60;;;;;;;;;;4984590;28;20374;-82
2022/05/05 10:15:33;;;;;;;8.35;3.35;;;;;;;;;;4984744;28;20045;-82
2022/05/05 10:18:00;;;;;;;9.15;3.90;;;;;;;;;;4988186;28;20393;-82
2022/05/05 10:20:25;;;;;;;8.23;4.10;;;;;;;;;;4987070;28;20041;-82
2022/05/05 10:22:59;;;;;;;8.63;3.47;;;;;;;;;;4972161;28;20034;-82
2022/05/05 10:25:28;;;;;;;8.55;3.90;;;;;;;;;;4986917;28;20515;-82
2022/05/05 10:27:56;;;;;;;7.80;3.50;;;;;;;;;;4988748;28;20091;-82
2022/05/05 10:30:36;;;;;;;9.43;3.25;;;;;;;;;;4971146;28;20845;-81
2022/05/05 10:33:05;;;;;;;10.15;4.00;;;;;;;;;;4974485;28;20100;-81
2022/05/05 10:35:39;;;;;;;9.52;4.28;;;;;;;;;;4986516;28;20092;-81
2022/05/05 10:38:43;;;;;;;9.60;3.90;;;;;;;;;;4969420;28;20041;-82
2022/05/05 10:41:31;;;;;;;7.43;3.88;;;;;;;;;;4977599;28;20161;-82
2022/05/05 10:44:22;;;;;;;7.97;4.35;;;;;;;;;;5003219;28;20497;-81
2022/05/05 10:47:02;;;;;;;10.13;4.45;;;;;;;;;;4985324;28;20377;-81
2022/05/05 10:49:30;;;;;;;8.93;4.35;;;;;;;;;;4987558;28;20030;-81
2022/05/05 10:52:10;;;;;;;11.52;4.38;;;;;;;;;;5003949;28;20489;-82
2022/05/05 10:54:46;;;;;;;8.73;4.10;;;;;;;;;;4987411;28;20092;-82
2022/05/05 10:57:27;;;;;;;7.05;3.40;;;;;;;;;;4967752;28;20096;-82
2022/05/05 11:00:10;;;;;;;8.93;3.70;;;;;;;;;;4986929;28;20116;-82
2022/05/05 11:02:57;;;;;;;7.80;4.00;;;;;;;;;;4994099;28;20100;-82
2022/05/05 11:05:27;;;;;;;9.88;3.63;;;;;;;;;;5001414;28;20133;-83
2022/05/05 11:08:17;;;;;;;7.85;3.10;;;;;;;;;;4969362;28;20041;-82
2022/05/05 11:13:40;;;;;;;10.25;3.45;;;;;;;;;;4988042;28;21104;-83
2022/05/05 11:22:20;;;;;;;6.80;3.38;;;;;;;;;;5001464;28;20231;-82
2022/05/05 11:24:47;;;;;;;7.70;3.45;;;;;;;;;;4969383;28;21002;-82
2022/05/05 11:27:15;;;;;;;8.25;3.25;;;;;;;;;;4972688;28;20500;-82
2022/05/05 11:29:40;;;;;;;8.68;3.58;;;;;;;;;;4980086;28;20053;-82
2022/05/05 11:32:06;;;;;;;8.02;3.67;;;;;;;;;;4985114;28;20113;-82
2022/05/05 11:34:36;;;;;;;8.05;4.38;;;;;;;;;;5001040;28;20370;-82
2022/05/05 11:37:03;;;;;;;10.23;4.43;;;;;;;;;;4984968;28;20037;-82
2022/05/05 11:39:30;;;;;;;8.38;3.80;;;;;;;;;;4969392;28;20050;-82
2022/05/05 11:42:00;;;;;;;10.73;4.30;;;;;;;;;;4968589;28;20092;-82
2022/05/05 11:44:27;;;;;;;8.70;4.00;;;;;;;;;;4960146;28;20456;-82
2022/05/05 11:46:53;;;;;;;10.38;4.20;;;;;;;;;;4969168;28;20429;-82
2022/05/05 11:49:19;;;;;;;8.60;3.97;;;;;;;;;;4973477;28;20056;-82
2022/05/05 11:51:44;;;;;;;10.10;4.03;;;;;;;;;;4968467;28;20026;-83
2022/05/05 11:54:12;;;;;;;7.05;4.07;;;;;;;;;;4970266;28;20053;-82
2022/05/05 11:56:44;;;;;;;7.80;4.00;;;;;;;;;;4984659;28;20449;-80
2022/05/05 12:02:04;;;;;;;7.45;4.03;;;;;;;;;;4987055;28;20053;-81
2022/05/05 12:04:30;;;;;;;9.95;4.03;;;;;;;;;;4989774;28;20046;-85
2022/05/05 12:06:57;;;;;;;8.93;3.60;;;;;;;;;;4971355;28;20501;-85
2022/05/05 12:09:22;;;;;;;8.30;4.55;;;;;;;;;;4960924;28;20045;-85
2022/05/05 12:11:47;;;;;;;7.88;3.60;;;;;;;;;;4974691;28;20041;-85
2022/05/05 12:14:13;;;;;;;8.18;3.58;;;;;;;;;;4970274;28;20057;-85
2022/05/05 12:16:41;;;;;;;9.90;4.22;;;;;;;;;;4983437;28;20549;-84
2022/05/05 12:19:11;;;;;;;7.68;3.75;;;;;;;;;;4981594;28;20045;-85
2022/05/05 12:21:38;;;;;;;9.73;4.07;;;;;;;;;;4966543;28;20434;-86
2022/05/05 12:24:03;;;;;;;8.68;4.25;;;;;;;;;;4996513;28;20096;-83
2022/05/05 12:26:29;;;;;;;11.57;4.60;;;;;;;;;;4978354;28;20034;-83
2022/05/05 12:28:58;;;;;;;7.70;4.22;;;;;;;;;;5002244;28;20137;-85
2022/05/05 12:31:24;;;;;;;7.55;4.15;;;;;;;;;;4968961;28;20041;-84
2022/05/05 12:33:50;;;;;;;8.57;4.30;;;;;;;;;;4969654;28;20382;-85
2022/05/05 12:36:17;;;;;;;7.53;4.35;;;;;;;;;;4982212;28;20487;-85
2022/05/05 12:38:42;;;;;;;10.95;4.32;;;;;;;;;;4969386;28;20038;-85
2022/05/05 12:41:08;;;;;;;10.25;4.10;;;;;;;;;;4972376;28;20048;-83
2022/05/05 12:43:34;;;;;;;10.57;4.18;;;;;;;;;;4973861;28;20088;-86
2022/05/05 12:46:03;;;;;;;9.45;5.07;;;;;;;;;;4988565;28;20516;-84
2022/05/05 12:48:28;;;;;;;10.50;4.20;;;;;;;;;;4976789;28;20654;-84
2022/05/05 12:50:53;;;;;;;8.95;4.10;;;;;;;;;;4974889;28;20033;-84
2022/05/05 13:01:40;;;;;;;10.05;4.05;;;;;;;;;;4990775;28;20503;-82
2022/05/05 13:04:07;;;;;;;;;;;;;;;;;;5004927;28;20057;-82
2022/05/05 13:06:33;;;;;;;7.40;3.00;;;;;;;;;;4988262;28;19917;-81
2022/05/05 13:08:59;;;;;;;8.88;3.60;;;;;;;;;;4979480;28;20128;-81
2022/05/05 13:11:25;;;;;;;9.48;4.25;;;;;;;;;;4985775;28;20087;-82
2022/05/05 13:13:51;;;;;;;7.82;3.88;;;;;;;;;;4983139;28;20446;-82
2022/05/05 13:16:16;;;;;;;8.10;3.80;;;;;;;;;;4976483;28;20038;-82
2022/05/05 13:18:42;;;;;;;7.32;4.00;;;;;;;;;;4971866;28;20033;-82
2022/05/05 13:21:08;;;;;;;9.30;4.00;;;;;;;;;;4988106;28;20117;-82
2022/05/05 13:23:34;;;;;;;7.82;3.20;;;;;;;;;;4989164;28;20030;-82
2022/05/05 13:26:00;;;;;;;7.05;3.50;;;;;;;;;;4984841;28;20108;-82
2022/05/05 13:28:25;;;;;;;10.65;3.97;;;;;;;;;;4983924;28;20088;-82
2022/05/05 13:30:50;;;;;;;11.20;4.15;;;;;;;;;;4987257;28;20038;-81
2022/05/05 13:33:15;;;;;;;13.05;4.22;;;;;;;;;;4988810;28;20489;-82
2022/05/05 13:35:41;;;;;;;8.77;3.88;;;;;;;;;;4971359;28;20030;-82
2022/05/05 13:38:06;;;;;;;10.85;3.92;;;;;;;;;;4988342;28;20048;-82
2022/05/05 13:40:32;;;;;;;9.07;3.72;;;;;;;;;;4971936;28;20103;-81
2022/05/05 13:42:57;;;;;;;9.95;3.58;;;;;;;;;;4975120;28;20420;-82
2022/05/05 13:45:22;;;;;;;8.98;3.20;;;;;;;;;;4984986;28;20397;-82
2022/05/05 13:47:48;;;;;;;9.68;3.58;;;;;;;;;;4984429;28;20033;-83
2022/05/05 13:50:13;;;;;;;7.15;2.65;;;;;;;;;;4975824;28;20045;-82
2022/05/05 13:52:40;;;;;;;6.95;3.10;;;;;;;;;;4971424;28;20088;-81
2022/05/05 13:55:06;;;;;;;7.13;2.58;;;;;;;;;;4971997;28;20129;-81
2022/05/05 13:57:32;;;;;;;6.60;2.80;;;;;;;;;;4965714;28;20037;-82
2022/05/05 13:59:57;;;;;;;8.07;2.90;;;;;;;;;;4987437;28;20069;-80
2022/05/05 14:02:22;;;;;;;7.85;2.72;;;;;;;;;;5004416;28;20030;-83
2022/05/05 14:04:48;;;;;;;8.00;2.90;;;;;;;;;;4986850;28;20042;-83
2022/05/05 14:07:13;;;;;;;6.82;2.88;;;;;;;;;;4977602;28;20040;-83
2022/05/05 14:12:25;;;;;;;8.18;2.95;;;;;;;;;;4989525;28;20152;-82
2022/05/05 14:14:50;;;;;;;6.03;2.70;;;;;;;;;;4987831;28;20105;-82
2022/05/05 14:17:17;;;;;;;9.95;2.75;;;;;;;;;;4971418;28;20658;-82
2022/05/05 14:19:43;;;;;;;6.88;2.70;;;;;;;;;;4987060;28;20044;-83
2022/05/05 14:22:09;;;;;;;7.18;2.63;;;;;;;;;;4987341;28;20129;-83
2022/05/05 14:24:35;;;;;;;7.43;2.88;;;;;;;;;;4970659;28;20160;-82
2022/05/05 14:27:01;;;;;;;5.38;2.42;;;;;;;;;;4976134;28;20072;-82
2022/05/05 14:29:26;;;;;;;7.53;2.70;;;;;;;;;;4987211;28;20029;-83
2022/05/05 14:31:52;;;;;;;6.35;2.40;;;;;;;;;;4985849;28;20044;-83
2022/05/05 14:34:20;;;;;;;6.05;2.65;;;;;;;;;;4974499;28;20084;-83
2022/05/05 14:36:45;;;;;;;5.97;2.20;;;;;;;;;;4986557;28;20485;-81
2022/05/05 14:39:11;;;;;;;7.68;2.45;;;;;;;;;;4975082;28;20129;-83
2022/05/05 14:41:36;;;;;;;8.48;2.35;;;;;;;;;;4969146;28;20038;-83
2022/05/05 14:44:02;;;;;;;7.22;2.80;;;;;;;;;;4985360;28;20550;-82
2022/05/05 14:46:28;;;;;;;4.57;1.98;;;;;;;;;;4984072;28;20038;-82
2022/05/05 14:48:53;;;;;;;7.90;2.42;;;;;;;;;;4962396;28;20037;-83
2022/05/05 14:51:19;;;;;;;7.28;2.58;;;;;;;;;;4970660;28;20095;-82
2022/05/05 14:53:44;;;;;;;21.08;2.92;;;;;;;;;;4974819;28;20034;-82
2022/05/05 14:56:10;;;;;;;7.53;2.58;;;;;;;;;;4970344;28;20038;-82
2022/05/05 14:58:36;;;;;;;5.53;2.28;;;;;;;;;;4978835;28;20033;-82
2022/05/05 15:01:01;;;;;;;7.50;2.00;;;;;;;;;;4985888;28;20038;-83
2022/05/05 15:03:27;;;;;;;9.77;2.15;;;;;;;;;;4968038;28;20058;-82
2022/05/05 15:05:54;;;;;;;6.72;2.17;;;;;;;;;;4967864;28;20054;-82
2022/05/05 15:08:20;;;;;;;8.00;2.42;;;;;;;;;;4977665;28;20034;-82
2022/05/05 15:10:45;;;;;;;7.57;2.13;;;;;;;;;;4982904;28;20069;-82
2022/05/05 15:13:10;;;;;;;5.20;2.10;;;;;;;;;;4967980;28;20064;-81
2022/05/05 15:15:36;;;;;;;6.35;2.25;;;;;;;;;;4980679;28;20038;-83
2022/05/05 15:18:02;;;;;;;6.18;1.90;;;;;;;;;;4983536;28;20100;-82
2022/05/05 15:20:28;;;;;;;6.95;2.20;;;;;;;;;;4980818;28;20030;-83
2022/05/05 15:22:55;;;;;;;6.68;2.10;;;;;;;;;;4973391;28;20400;-81
2022/05/05 15:25:20;;;;;;;5.22;1.75;;;;;;;;;;4979733;28;20030;-82
2022/05/05 15:27:48;;;;;;;7.75;2.08;;;;;;;;;;4972228;28;20519;-82
2022/05/05 15:30:14;;;;;;;4.88;1.60;;;;;;;;;;4981783;28;20035;-82
2022/05/05 15:32:39;;;;;;;6.53;1.80;;;;;;;;;;4972869;28;20101;-81
2022/05/05 15:35:05;;;;;;;6.38;1.90;;;;;;;;;;4981636;28;20042;-81
2022/05/05 15:37:35;;;;;;;5.22;1.90;;;;;;;;;;4965917;28;20064;-82